sensor_id;sensor_type;location;lat;lon;timestamp;pressure;altitude;pressure_sealevel;temperature;humidity
6528;BME280;64597;42.664;23.256;2023-04-26T00:00:03;93649.59;;;10.33;68.56
6528;BME280;64597;42.664;23.256;2023-04-26T00:02:34;93631.38;;;10.22;68.82
6528;BME280;64597;42.664;23.256;2023-04-26T00:05:04;93612.78;;;10.07;68.82
6528;BME280;64597;42.664;23.256;2023-04-26T00:07:33;93625.78;;;10.18;68.06
6528;BME280;64597;42.664;23.256;2023-04-26T00:10:04;93626.22;;;10.05;68.47
6528;BME280;64597;42.664;23.256;2023-04-26T00:12:33;93634.75;;;10.17;69.27
6528;BME280;64597;42.664;23.256;2023-04-26T00:15:00;93635.47;;;10.08;69.33
6528;BME280;64597;42.664;23.256;2023-04-26T00:17:27;93622.28;;;10.08;68.91
6528;BME280;64597;42.664;23.256;2023-04-26T00:19:54;93622.97;;;9.93;69.68
6528;BME280;64597;42.664;23.256;2023-04-26T00:22:24;93625.31;;;9.89;69.36
6528;BME280;64597;42.664;23.256;2023-04-26T00:24:54;93625.78;;;9.81;69.48
6528;BME280;64597;42.664;23.256;2023-04-26T00:27:21;93623.69;;;9.83;69.29
6528;BME280;64597;42.664;23.256;2023-04-26T00:29:50;93622.66;;;9.84;68.78
6528;BME280;64597;42.664;23.256;2023-04-26T00:32:20;93618.94;;;9.80;69.29
6528;BME280;64597;42.664;23.256;2023-04-26T00:34:46;93612.91;;;9.85;69.59
6528;BME280;64597;42.664;23.256;2023-04-26T00:37:13;93613.47;;;9.87;68.95
6528;BME280;64597;42.664;23.256;2023-04-26T00:39:40;93616.66;;;9.94;67.22
6528;BME280;64597;42.664;23.256;2023-04-26T00:42:08;93606.16;;;9.62;67.37
6528;BME280;64597;42.664;23.256;2023-04-26T00:44:36;93612.50;;;9.66;67.27
6528;BME280;64597;42.664;23.256;2023-04-26T00:47:06;93612.94;;;9.53;68.00
6528;BME280;64597;42.664;23.256;2023-04-26T00:49:33;93616.72;;;9.36;69.16
6528;BME280;64597;42.664;23.256;2023-04-26T00:51:59;93620.25;;;9.20;69.38
6528;BME280;64597;42.664;23.256;2023-04-26T00:54:27;93618.63;;;9.13;69.70
6528;BME280;64597;42.664;23.256;2023-04-26T00:56:58;93613.91;;;9.16;69.74
6528;BME280;64597;42.664;23.256;2023-04-26T00:59:25;93611.28;;;9.16;69.13
6528;BME280;64597;42.664;23.256;2023-04-26T01:01:51;93607.50;;;9.06;69.07
6528;BME280;64597;42.664;23.256;2023-04-26T01:04:19;93620.00;;;9.21;68.65
6528;BME280;64597;42.664;23.256;2023-04-26T01:06:47;93624.91;;;9.12;68.76
6528;BME280;64597;42.664;23.256;2023-04-26T01:09:13;93622.56;;;9.16;68.57
6528;BME280;64597;42.664;23.256;2023-04-26T01:11:42;93622.09;;;9.19;69.39
6528;BME280;64597;42.664;23.256;2023-04-26T01:14:14;93628.69;;;9.22;68.52
6528;BME280;64597;42.664;23.256;2023-04-26T01:16:44;93605.13;;;9.05;68.63
6528;BME280;64597;42.664;23.256;2023-04-26T01:19:14;93608.00;;;9.03;69.18
6528;BME280;64597;42.664;23.256;2023-04-26T01:21:41;93596.19;;;9.06;69.08
6528;BME280;64597;42.664;23.256;2023-04-26T01:24:13;93604.06;;;9.06;69.45
6528;BME280;64597;42.664;23.256;2023-04-26T01:26:42;93599.06;;;9.04;69.47
6528;BME280;64597;42.664;23.256;2023-04-26T01:29:20;93610.69;;;9.08;68.83
6528;BME280;64597;42.664;23.256;2023-04-26T01:31:49;93605.69;;;9.07;69.26
6528;BME280;64597;42.664;23.256;2023-04-26T01:34:18;93617.47;;;9.04;69.12
6528;BME280;64597;42.664;23.256;2023-04-26T01:36:48;93618.28;;;9.05;69.06
6528;BME280;64597;42.664;23.256;2023-04-26T01:39:17;93600.66;;;8.79;69.73
6528;BME280;64597;42.664;23.256;2023-04-26T01:41:47;93612.75;;;8.80;69.51
6528;BME280;64597;42.664;23.256;2023-04-26T01:44:14;93624.53;;;8.77;69.97
6528;BME280;64597;42.664;23.256;2023-04-26T01:46:41;93621.69;;;8.79;70.11
6528;BME280;64597;42.664;23.256;2023-04-26T01:49:09;93612.44;;;8.76;70.23
6528;BME280;64597;42.664;23.256;2023-04-26T01:51:36;93602.75;;;8.77;70.65
6528;BME280;64597;42.664;23.256;2023-04-26T01:54:06;93607.22;;;8.81;70.55
6528;BME280;64597;42.664;23.256;2023-04-26T01:56:35;93586.97;;;8.77;70.67
6528;BME280;64597;42.664;23.256;2023-04-26T01:59:02;93600.34;;;8.75;71.56
6528;BME280;64597;42.664;23.256;2023-04-26T02:01:29;93550.09;;;8.45;71.05
6528;BME280;64597;42.664;23.256;2023-04-26T02:03:58;93586.56;;;8.90;70.70
6528;BME280;64597;42.664;23.256;2023-04-26T02:06:25;93584.75;;;8.90;70.56
6528;BME280;64597;42.664;23.256;2023-04-26T02:08:55;93597.16;;;8.95;70.55
6528;BME280;64597;42.664;23.256;2023-04-26T02:11:23;93569.72;;;8.86;70.79
6528;BME280;64597;42.664;23.256;2023-04-26T02:13:54;93590.84;;;8.96;70.52
6528;BME280;64597;42.664;23.256;2023-04-26T02:16:24;93585.88;;;8.99;70.58
6528;BME280;64597;42.664;23.256;2023-04-26T02:18:51;93587.47;;;9.00;70.47
6528;BME280;64597;42.664;23.256;2023-04-26T02:21:26;93587.75;;;9.04;70.47
6528;BME280;64597;42.664;23.256;2023-04-26T02:23:54;93583.28;;;9.04;70.49
6528;BME280;64597;42.664;23.256;2023-04-26T02:26:24;93586.91;;;8.98;70.59
6528;BME280;64597;42.664;23.256;2023-04-26T02:28:53;93591.34;;;8.93;71.28
6528;BME280;64597;42.664;23.256;2023-04-26T02:31:21;93592.06;;;8.88;71.27
6528;BME280;64597;42.664;23.256;2023-04-26T02:33:48;93595.81;;;8.92;71.29
6528;BME280;64597;42.664;23.256;2023-04-26T02:36:15;93581.84;;;8.92;70.74
6528;BME280;64597;42.664;23.256;2023-04-26T02:38:42;93595.59;;;8.99;70.73
6528;BME280;64597;42.664;23.256;2023-04-26T02:41:10;93589.06;;;9.01;70.30
6528;BME280;64597;42.664;23.256;2023-04-26T02:43:36;93593.34;;;9.07;70.84
6528;BME280;64597;42.664;23.256;2023-04-26T02:46:06;93572.97;;;8.98;70.28
6528;BME280;64597;42.664;23.256;2023-04-26T02:48:33;93583.09;;;9.11;69.94
6528;BME280;64597;42.664;23.256;2023-04-26T02:51:01;93573.31;;;9.06;69.71
6528;BME280;64597;42.664;23.256;2023-04-26T02:53:28;93572.84;;;9.09;69.67
6528;BME280;64597;42.664;23.256;2023-04-26T02:55:54;93559.94;;;9.08;70.04
6528;BME280;64597;42.664;23.256;2023-04-26T02:58:21;93568.66;;;9.13;69.75
6528;BME280;64597;42.664;23.256;2023-04-26T03:00:50;93571.31;;;9.13;70.12
6528;BME280;64597;42.664;23.256;2023-04-26T03:03:18;93563.34;;;9.08;70.60
6528;BME280;64597;42.664;23.256;2023-04-26T03:05:47;93568.06;;;9.06;70.13
6528;BME280;64597;42.664;23.256;2023-04-26T03:08:15;93588.16;;;9.18;70.07
6528;BME280;64597;42.664;23.256;2023-04-26T03:10:43;93560.25;;;9.11;71.04
6528;BME280;64597;42.664;23.256;2023-04-26T03:13:10;93576.38;;;9.25;71.24
6528;BME280;64597;42.664;23.256;2023-04-26T03:15:37;93575.88;;;9.28;72.20
6528;BME280;64597;42.664;23.256;2023-04-26T03:18:06;93581.69;;;9.30;72.29
6528;BME280;64597;42.664;23.256;2023-04-26T03:20:36;93583.56;;;9.35;71.76
6528;BME280;64597;42.664;23.256;2023-04-26T03:23:04;93581.00;;;9.40;72.09
6528;BME280;64597;42.664;23.256;2023-04-26T03:25:30;93585.25;;;9.46;72.67
6528;BME280;64597;42.664;23.256;2023-04-26T03:27:59;93562.53;;;9.35;72.27
6528;BME280;64597;42.664;23.256;2023-04-26T03:30:29;93582.34;;;9.47;72.48
6528;BME280;64597;42.664;23.256;2023-04-26T03:32:57;93577.16;;;9.52;72.85
6528;BME280;64597;42.664;23.256;2023-04-26T03:35:24;93576.84;;;9.49;72.50
6528;BME280;64597;42.664;23.256;2023-04-26T03:37:52;93584.81;;;9.59;72.59
6528;BME280;64597;42.664;23.256;2023-04-26T03:40:21;93585.31;;;9.56;72.85
6528;BME280;64597;42.664;23.256;2023-04-26T03:42:50;93591.41;;;9.61;72.89
6528;BME280;64597;42.664;23.256;2023-04-26T03:45:20;93593.25;;;9.61;72.73
6528;BME280;64597;42.664;23.256;2023-04-26T03:47:46;93594.59;;;9.63;71.82
6528;BME280;64597;42.664;23.256;2023-04-26T03:50:16;93600.38;;;9.65;72.21
6528;BME280;64597;42.664;23.256;2023-04-26T03:52:43;93600.69;;;9.69;71.85
6528;BME280;64597;42.664;23.256;2023-04-26T03:55:09;93595.13;;;9.65;72.42
6528;BME280;64597;42.664;23.256;2023-04-26T03:57:37;93599.03;;;9.58;72.85
6528;BME280;64597;42.664;23.256;2023-04-26T04:00:06;93607.66;;;9.53;73.01
6528;BME280;64597;42.664;23.256;2023-04-26T04:02:39;93601.59;;;9.53;72.66
6528;BME280;64597;42.664;23.256;2023-04-26T04:05:07;93549.25;;;9.20;72.79
6528;BME280;64597;42.664;23.256;2023-04-26T04:07:34;93612.19;;;9.63;72.88
6528;BME280;64597;42.664;23.256;2023-04-26T04:10:02;93613.84;;;9.69;72.75
6528;BME280;64597;42.664;23.256;2023-04-26T04:12:31;93609.13;;;9.71;72.49
6528;BME280;64597;42.664;23.256;2023-04-26T04:15:00;93608.34;;;9.75;73.17
6528;BME280;64597;42.664;23.256;2023-04-26T04:17:28;93603.06;;;9.70;72.64
6528;BME280;64597;42.664;23.256;2023-04-26T04:19:55;93610.22;;;9.75;72.26
6528;BME280;64597;42.664;23.256;2023-04-26T04:22:24;93614.47;;;9.81;71.98
6528;BME280;64597;42.664;23.256;2023-04-26T04:24:50;93614.22;;;9.87;72.15
6528;BME280;64597;42.664;23.256;2023-04-26T04:27:18;93614.28;;;9.92;71.70
6528;BME280;64597;42.664;23.256;2023-04-26T04:29:45;93624.06;;;9.97;71.21
6528;BME280;64597;42.664;23.256;2023-04-26T04:32:11;93626.16;;;9.95;71.07
6528;BME280;64597;42.664;23.256;2023-04-26T04:34:39;93629.38;;;10.07;71.07
6528;BME280;64597;42.664;23.256;2023-04-26T04:37:07;93631.84;;;10.14;71.26
6528;BME280;64597;42.664;23.256;2023-04-26T04:39:35;93633.22;;;10.26;71.00
6528;BME280;64597;42.664;23.256;2023-04-26T04:42:05;93622.69;;;10.26;70.81
6528;BME280;64597;42.664;23.256;2023-04-26T04:44:31;93626.38;;;10.25;71.24
6528;BME280;64597;42.664;23.256;2023-04-26T04:46:59;93629.97;;;10.14;71.38
6528;BME280;64597;42.664;23.256;2023-04-26T04:49:27;93626.09;;;10.22;71.72
6528;BME280;64597;42.664;23.256;2023-04-26T04:51:53;93563.47;;;9.92;70.95
6528;BME280;64597;42.664;23.256;2023-04-26T04:54:21;93576.16;;;10.00;70.72
6528;BME280;64597;42.664;23.256;2023-04-26T04:56:48;93596.06;;;10.23;70.49
6528;BME280;64597;42.664;23.256;2023-04-26T04:59:13;93624.59;;;10.41;70.28
6528;BME280;64597;42.664;23.256;2023-04-26T05:01:42;93637.81;;;10.46;70.70
6528;BME280;64597;42.664;23.256;2023-04-26T05:04:09;93626.53;;;10.55;69.98
6528;BME280;64597;42.664;23.256;2023-04-26T05:06:36;93626.59;;;10.70;69.98
6528;BME280;64597;42.664;23.256;2023-04-26T05:09:03;93621.88;;;10.72;69.68
6528;BME280;64597;42.664;23.256;2023-04-26T05:11:33;93574.84;;;10.44;70.01
6528;BME280;64597;42.664;23.256;2023-04-26T05:14:01;93620.59;;;10.90;68.86
6528;BME280;64597;42.664;23.256;2023-04-26T05:16:27;93623.50;;;10.94;68.12
6528;BME280;64597;42.664;23.256;2023-04-26T05:18:53;93619.81;;;10.95;68.33
6528;BME280;64597;42.664;23.256;2023-04-26T05:21:21;93624.59;;;10.98;68.73
6528;BME280;64597;42.664;23.256;2023-04-26T05:23:48;93615.13;;;11.07;68.87
6528;BME280;64597;42.664;23.256;2023-04-26T05:26:15;93608.81;;;11.18;68.40
6528;BME280;64597;42.664;23.256;2023-04-26T05:28:42;93627.56;;;11.31;68.17
6528;BME280;64597;42.664;23.256;2023-04-26T05:31:08;93619.41;;;11.38;67.84
6528;BME280;64597;42.664;23.256;2023-04-26T05:33:35;93629.44;;;11.56;67.75
6528;BME280;64597;42.664;23.256;2023-04-26T05:36:00;93621.56;;;11.66;66.99
6528;BME280;64597;42.664;23.256;2023-04-26T05:38:28;93629.50;;;11.81;66.32
6528;BME280;64597;42.664;23.256;2023-04-26T05:40:55;93626.84;;;11.86;66.31
6528;BME280;64597;42.664;23.256;2023-04-26T05:43:22;93633.16;;;12.10;65.99
6528;BME280;64597;42.664;23.256;2023-04-26T05:45:54;93635.28;;;12.28;65.77
6528;BME280;64597;42.664;23.256;2023-04-26T05:48:24;93636.31;;;12.43;64.68
6528;BME280;64597;42.664;23.256;2023-04-26T05:50:51;93633.63;;;12.48;64.12
6528;BME280;64597;42.664;23.256;2023-04-26T05:53:17;93641.00;;;12.66;63.12
6528;BME280;64597;42.664;23.256;2023-04-26T05:55:45;93636.22;;;12.73;62.06
6528;BME280;64597;42.664;23.256;2023-04-26T05:58:12;93622.19;;;12.77;60.69
6528;BME280;64597;42.664;23.256;2023-04-26T06:00:39;93612.38;;;12.88;60.64
6528;BME280;64597;42.664;23.256;2023-04-26T06:03:06;93633.38;;;13.23;58.92
6528;BME280;64597;42.664;23.256;2023-04-26T06:05:32;93636.97;;;13.42;55.46
6528;BME280;64597;42.664;23.256;2023-04-26T06:08:01;93643.41;;;13.75;55.42
6528;BME280;64597;42.664;23.256;2023-04-26T06:10:27;93632.94;;;13.88;54.16
6528;BME280;64597;42.664;23.256;2023-04-26T06:12:55;93638.09;;;14.08;54.94
6528;BME280;64597;42.664;23.256;2023-04-26T06:15:22;93646.94;;;14.28;54.41
6528;BME280;64597;42.664;23.256;2023-04-26T06:17:49;93647.34;;;14.45;52.71
6528;BME280;64597;42.664;23.256;2023-04-26T06:20:16;93651.06;;;14.44;53.71
6528;BME280;64597;42.664;23.256;2023-04-26T06:22:46;93635.66;;;14.46;54.01
6528;BME280;64597;42.664;23.256;2023-04-26T06:25:13;93654.38;;;14.59;53.62
6528;BME280;64597;42.664;23.256;2023-04-26T06:27:40;93650.81;;;14.69;53.33
6528;BME280;64597;42.664;23.256;2023-04-26T06:30:07;93658.81;;;14.64;52.50
6528;BME280;64597;42.664;23.256;2023-04-26T06:32:33;93659.84;;;14.68;53.09
6528;BME280;64597;42.664;23.256;2023-04-26T06:34:59;93643.75;;;14.59;52.40
6528;BME280;64597;42.664;23.256;2023-04-26T06:37:24;93634.28;;;14.53;52.49
6528;BME280;64597;42.664;23.256;2023-04-26T06:39:50;93654.41;;;14.78;52.02
6528;BME280;64597;42.664;23.256;2023-04-26T06:42:16;93648.06;;;14.79;51.80
6528;BME280;64597;42.664;23.256;2023-04-26T06:44:42;93664.00;;;14.74;51.82
6528;BME280;64597;42.664;23.256;2023-04-26T06:47:08;93663.19;;;15.02;51.52
6528;BME280;64597;42.664;23.256;2023-04-26T06:49:35;93643.28;;;15.23;50.78
6528;BME280;64597;42.664;23.256;2023-04-26T06:52:02;93661.22;;;15.74;48.84
6528;BME280;64597;42.664;23.256;2023-04-26T06:54:29;93647.50;;;15.85;47.22
6528;BME280;64597;42.664;23.256;2023-04-26T06:56:55;93662.16;;;16.33;47.51
6528;BME280;64597;42.664;23.256;2023-04-26T06:59:25;93645.63;;;16.82;47.19
6528;BME280;64597;42.664;23.256;2023-04-26T07:01:51;93649.97;;;17.60;46.62
6528;BME280;64597;42.664;23.256;2023-04-26T07:04:19;93668.94;;;18.16;44.40
6528;BME280;64597;42.664;23.256;2023-04-26T07:06:46;93664.41;;;18.61;43.27
6528;BME280;64597;42.664;23.256;2023-04-26T07:09:12;93654.28;;;19.11;41.30
6528;BME280;64597;42.664;23.256;2023-04-26T07:11:38;93657.94;;;19.23;39.80
6528;BME280;64597;42.664;23.256;2023-04-26T07:14:05;93645.22;;;19.29;38.29
6528;BME280;64597;42.664;23.256;2023-04-26T07:16:31;93645.78;;;19.09;38.61
6528;BME280;64597;42.664;23.256;2023-04-26T07:18:59;93657.03;;;18.97;39.26
6528;BME280;64597;42.664;23.256;2023-04-26T07:21:26;93657.50;;;18.90;39.83
6528;BME280;64597;42.664;23.256;2023-04-26T07:23:58;93652.66;;;18.62;38.60
6528;BME280;64597;42.664;23.256;2023-04-26T07:26:27;93657.28;;;18.34;37.72
6528;BME280;64597;42.664;23.256;2023-04-26T07:28:54;93641.03;;;18.22;37.44
6528;BME280;64597;42.664;23.256;2023-04-26T07:31:20;93649.34;;;17.98;38.04
6528;BME280;64597;42.664;23.256;2023-04-26T07:33:46;93669.38;;;17.74;38.31
6528;BME280;64597;42.664;23.256;2023-04-26T07:36:13;93673.59;;;17.75;39.30
6528;BME280;64597;42.664;23.256;2023-04-26T07:38:41;93674.31;;;17.80;39.81
6528;BME280;64597;42.664;23.256;2023-04-26T07:41:08;93671.50;;;17.85;39.13
6528;BME280;64597;42.664;23.256;2023-04-26T07:43:33;93681.81;;;17.65;39.09
6528;BME280;64597;42.664;23.256;2023-04-26T07:46:00;93685.19;;;17.57;39.25
6528;BME280;64597;42.664;23.256;2023-04-26T07:48:26;93681.53;;;17.53;39.08
6528;BME280;64597;42.664;23.256;2023-04-26T07:50:53;93673.38;;;17.49;39.78
6528;BME280;64597;42.664;23.256;2023-04-26T07:53:20;93685.03;;;17.89;39.38
6528;BME280;64597;42.664;23.256;2023-04-26T07:55:52;93666.59;;;17.79;39.23
6528;BME280;64597;42.664;23.256;2023-04-26T07:58:18;93679.28;;;17.95;39.28
6528;BME280;64597;42.664;23.256;2023-04-26T08:00:49;93686.66;;;18.12;38.31
6528;BME280;64597;42.664;23.256;2023-04-26T08:03:15;93685.09;;;17.97;39.17
6528;BME280;64597;42.664;23.256;2023-04-26T08:05:43;93690.19;;;18.21;39.43
6528;BME280;64597;42.664;23.256;2023-04-26T08:08:08;93673.47;;;18.16;38.22
6528;BME280;64597;42.664;23.256;2023-04-26T08:10:34;93671.25;;;18.09;37.97
6528;BME280;64597;42.664;23.256;2023-04-26T08:13:01;93686.44;;;18.44;37.71
6528;BME280;64597;42.664;23.256;2023-04-26T08:15:29;93684.31;;;18.55;37.78
6528;BME280;64597;42.664;23.256;2023-04-26T08:17:56;93686.56;;;18.61;38.29
6528;BME280;64597;42.664;23.256;2023-04-26T08:20:22;93691.47;;;18.68;37.61
6528;BME280;64597;42.664;23.256;2023-04-26T08:22:48;93694.84;;;18.82;37.56
6528;BME280;64597;42.664;23.256;2023-04-26T08:25:14;93686.31;;;19.02;36.76
6528;BME280;64597;42.664;23.256;2023-04-26T08:27:39;93684.50;;;18.89;36.68
6528;BME280;64597;42.664;23.256;2023-04-26T08:30:05;93685.66;;;18.97;36.55
6528;BME280;64597;42.664;23.256;2023-04-26T08:32:31;93680.69;;;18.81;36.88
6528;BME280;64597;42.664;23.256;2023-04-26T08:34:58;93679.34;;;18.62;36.85
6528;BME280;64597;42.664;23.256;2023-04-26T08:37:24;93676.84;;;18.65;36.89
6528;BME280;64597;42.664;23.256;2023-04-26T08:39:50;93674.00;;;18.62;37.28
6528;BME280;64597;42.664;23.256;2023-04-26T08:42:16;93683.03;;;18.74;37.11
6528;BME280;64597;42.664;23.256;2023-04-26T08:44:43;93673.22;;;18.61;37.36
6528;BME280;64597;42.664;23.256;2023-04-26T08:47:28;93683.94;;;18.70;37.30
6528;BME280;64597;42.664;23.256;2023-04-26T08:49:57;93683.63;;;18.71;37.47
6528;BME280;64597;42.664;23.256;2023-04-26T08:52:28;93692.13;;;18.73;36.77
6528;BME280;64597;42.664;23.256;2023-04-26T08:54:56;93674.78;;;18.62;37.10
6528;BME280;64597;42.664;23.256;2023-04-26T08:57:23;93683.94;;;18.70;36.84
6528;BME280;64597;42.664;23.256;2023-04-26T08:59:49;93694.34;;;18.49;37.26
6528;BME280;64597;42.664;23.256;2023-04-26T09:02:18;93685.69;;;18.52;37.45
6528;BME280;64597;42.664;23.256;2023-04-26T09:04:47;93689.94;;;18.31;37.10
6528;BME280;64597;42.664;23.256;2023-04-26T09:07:21;93691.63;;;18.27;37.34
6528;BME280;64597;42.664;23.256;2023-04-26T09:09:48;93686.78;;;18.29;37.22
6528;BME280;64597;42.664;23.256;2023-04-26T09:12:18;93671.59;;;18.16;36.90
6528;BME280;64597;42.664;23.256;2023-04-26T09:14:47;93686.16;;;18.10;37.25
6528;BME280;64597;42.664;23.256;2023-04-26T09:17:30;93691.47;;;17.88;37.82
6528;BME280;64597;42.664;23.256;2023-04-26T09:19:59;93704.84;;;18.10;37.79
6528;BME280;64597;42.664;23.256;2023-04-26T09:22:35;93699.75;;;18.22;38.08
6528;BME280;64597;42.664;23.256;2023-04-26T09:25:05;93697.63;;;18.33;38.57
6528;BME280;64597;42.664;23.256;2023-04-26T09:27:40;93694.44;;;18.44;37.94
6528;BME280;64597;42.664;23.256;2023-04-26T09:30:15;93697.84;;;18.58;36.33
6528;BME280;64597;42.664;23.256;2023-04-26T09:40:47;93697.38;;;18.87;36.77
6528;BME280;64597;42.664;23.256;2023-04-26T09:43:16;93691.06;;;19.05;36.20
6528;BME280;64597;42.664;23.256;2023-04-26T09:45:46;93684.97;;;19.22;36.21
6528;BME280;64597;42.664;23.256;2023-04-26T09:50:49;93684.22;;;19.30;36.02
6528;BME280;64597;42.664;23.256;2023-04-26T09:53:34;93690.97;;;19.27;35.78
6528;BME280;64597;42.664;23.256;2023-04-26T09:56:15;93682.75;;;19.46;34.83
6528;BME280;64597;42.664;23.256;2023-04-26T10:01:15;93661.75;;;19.31;34.62
6528;BME280;64597;42.664;23.256;2023-04-26T10:03:46;93672.88;;;19.63;33.95
6528;BME280;64597;42.664;23.256;2023-04-26T10:06:12;93652.50;;;19.37;34.54
6528;BME280;64597;42.664;23.256;2023-04-26T10:08:41;93678.06;;;19.60;34.96
6528;BME280;64597;42.664;23.256;2023-04-26T10:11:10;93670.38;;;19.76;34.61
6528;BME280;64597;42.664;23.256;2023-04-26T10:13:38;93676.81;;;19.83;33.37
6528;BME280;64597;42.664;23.256;2023-04-26T10:16:05;93672.88;;;19.63;34.14
6528;BME280;64597;42.664;23.256;2023-04-26T10:18:32;93673.97;;;19.71;33.55
6528;BME280;64597;42.664;23.256;2023-04-26T10:21:33;93671.81;;;19.90;33.88
6528;BME280;64597;42.664;23.256;2023-04-26T10:23:52;93674.91;;;20.95;53.42
6528;BME280;64597;42.664;23.256;2023-04-26T10:26:51;93672.94;;;21.79;47.16
6528;BME280;64597;42.664;23.256;2023-04-26T10:29:25;93670.91;;;22.47;43.81
6528;BME280;64597;42.664;23.256;2023-04-26T10:34:35;93668.81;;;23.18;35.47
6528;BME280;64597;42.664;23.256;2023-04-26T10:37:14;93662.91;;;23.36;33.15
6528;BME280;64597;42.664;23.256;2023-04-26T10:39:44;93666.97;;;23.42;33.04
6528;BME280;64597;42.664;23.256;2023-04-26T10:42:26;93662.69;;;23.53;33.24
6528;BME280;64597;42.664;23.256;2023-04-26T10:47:49;93655.19;;;23.71;30.09
6528;BME280;64597;42.664;23.256;2023-04-26T10:50:20;93641.16;;;23.65;31.70
6528;BME280;64597;42.664;23.256;2023-04-26T10:55:41;93660.09;;;22.88;27.04
6528;BME280;64597;42.664;23.256;2023-04-26T10:58:30;93654.41;;;22.36;27.47
6528;BME280;64597;42.664;23.256;2023-04-26T11:01:15;93660.97;;;22.06;28.71
6528;BME280;64597;42.664;23.256;2023-04-26T11:03:42;93656.91;;;22.00;28.21
6528;BME280;64597;42.664;23.256;2023-04-26T11:06:10;93657.34;;;21.81;28.73
6528;BME280;64597;42.664;23.256;2023-04-26T11:08:39;93634.66;;;21.41;28.79
6528;BME280;64597;42.664;23.256;2023-04-26T11:11:10;93654.94;;;21.30;28.92
6528;BME280;64597;42.664;23.256;2023-04-26T11:13:38;93651.56;;;21.04;29.61
6528;BME280;64597;42.664;23.256;2023-04-26T11:16:09;93657.56;;;20.84;30.37
6528;BME280;64597;42.664;23.256;2023-04-26T11:18:36;93659.66;;;20.70;30.33
6528;BME280;64597;42.664;23.256;2023-04-26T11:21:06;93661.09;;;20.59;30.11
6528;BME280;64597;42.664;23.256;2023-04-26T11:23:32;93659.25;;;20.33;30.13
6528;BME280;64597;42.664;23.256;2023-04-26T11:26:00;93660.19;;;20.20;30.65
6528;BME280;64597;42.664;23.256;2023-04-26T11:28:37;93656.06;;;19.80;29.80
6528;BME280;64597;42.664;23.256;2023-04-26T11:31:05;93658.09;;;19.66;30.22
6528;BME280;64597;42.664;23.256;2023-04-26T11:33:33;93647.81;;;19.51;30.48
6528;BME280;64597;42.664;23.256;2023-04-26T11:36:00;93666.25;;;19.61;31.11
6528;BME280;64597;42.664;23.256;2023-04-26T11:38:30;93678.06;;;19.60;31.56
6528;BME280;64597;42.664;23.256;2023-04-26T11:40:59;93676.28;;;19.47;31.88
6528;BME280;64597;42.664;23.256;2023-04-26T11:43:38;93681.84;;;19.28;32.18
6528;BME280;64597;42.664;23.256;2023-04-26T11:46:06;93674.44;;;19.17;32.29
6528;BME280;64597;42.664;23.256;2023-04-26T11:48:37;93670.91;;;19.08;32.28
6528;BME280;64597;42.664;23.256;2023-04-26T11:51:04;93675.56;;;18.93;31.97
6528;BME280;64597;42.664;23.256;2023-04-26T11:53:36;93678.25;;;18.93;32.24
6528;BME280;64597;42.664;23.256;2023-04-26T11:56:05;93670.44;;;19.06;35.38
6528;BME280;64597;42.664;23.256;2023-04-26T11:58:43;93667.69;;;19.19;34.77
6528;BME280;64597;42.664;23.256;2023-04-26T12:01:11;93672.09;;;19.24;34.09
6528;BME280;64597;42.664;23.256;2023-04-26T12:03:52;93661.19;;;19.12;33.67
6528;BME280;64597;42.664;23.256;2023-04-26T12:06:44;93660.03;;;18.96;33.09
6528;BME280;64597;42.664;23.256;2023-04-26T12:09:12;93652.81;;;18.65;33.23
6528;BME280;64597;42.664;23.256;2023-04-26T12:11:47;93667.59;;;18.71;34.10
6528;BME280;64597;42.664;23.256;2023-04-26T12:14:18;93668.13;;;18.51;33.46
6528;BME280;64597;42.664;23.256;2023-04-26T12:16:47;93650.75;;;18.40;33.62
6528;BME280;64597;42.664;23.256;2023-04-26T12:19:13;93644.56;;;18.31;33.51
6528;BME280;64597;42.664;23.256;2023-04-26T12:21:41;93669.56;;;18.35;33.50
6528;BME280;64597;42.664;23.256;2023-04-26T12:26:46;93651.41;;;18.24;33.61
6528;BME280;64597;42.664;23.256;2023-04-26T12:29:13;93657.53;;;18.24;33.08
6528;BME280;64597;42.664;23.256;2023-04-26T12:31:38;93658.44;;;18.20;33.60
6528;BME280;64597;42.664;23.256;2023-04-26T12:34:04;93653.41;;;18.18;34.15
6528;BME280;64597;42.664;23.256;2023-04-26T12:36:30;93637.31;;;17.87;34.31
6528;BME280;64597;42.664;23.256;2023-04-26T12:39:01;93661.16;;;18.06;34.59
6528;BME280;64597;42.664;23.256;2023-04-26T12:41:30;93657.44;;;18.07;34.48
6528;BME280;64597;42.664;23.256;2023-04-26T12:44:00;93651.22;;;17.98;34.66
6528;BME280;64597;42.664;23.256;2023-04-26T12:46:26;93656.56;;;17.98;34.65
6528;BME280;64597;42.664;23.256;2023-04-26T12:48:52;93653.16;;;17.84;34.20
6528;BME280;64597;42.664;23.256;2023-04-26T12:51:18;93656.31;;;17.86;34.94
6528;BME280;64597;42.664;23.256;2023-04-26T12:53:44;93653.41;;;17.96;35.49
6528;BME280;64597;42.664;23.256;2023-04-26T12:56:10;93640.72;;;17.79;35.28
6528;BME280;64597;42.664;23.256;2023-04-26T12:58:36;93659.31;;;17.93;35.47
6528;BME280;64597;42.664;23.256;2023-04-26T13:01:02;93652.78;;;17.99;35.29
6528;BME280;64597;42.664;23.256;2023-04-26T13:03:31;93649.44;;;17.71;34.66
6528;BME280;64597;42.664;23.256;2023-04-26T13:05:58;93663.06;;;17.70;35.98
6528;BME280;64597;42.664;23.256;2023-04-26T13:08:25;93660.88;;;17.72;35.06
6528;BME280;64597;42.664;23.256;2023-04-26T13:10:55;93668.28;;;17.75;35.64
6528;BME280;64597;42.664;23.256;2023-04-26T13:13:25;93663.78;;;17.62;35.77
6528;BME280;64597;42.664;23.256;2023-04-26T13:15:51;93671.56;;;17.58;35.76
6528;BME280;64597;42.664;23.256;2023-04-26T13:18:18;93673.38;;;17.49;36.22
6528;BME280;64597;42.664;23.256;2023-04-26T13:20:44;93678.31;;;17.56;36.10
6528;BME280;64597;42.664;23.256;2023-04-26T13:23:12;93661.38;;;17.47;35.26
6528;BME280;64597;42.664;23.256;2023-04-26T13:25:39;93690.41;;;17.48;35.79
6528;BME280;64597;42.664;23.256;2023-04-26T13:28:05;93637.44;;;17.19;35.89
6528;BME280;64597;42.664;23.256;2023-04-26T13:30:32;93699.41;;;17.39;36.16
6528;BME280;64597;42.664;23.256;2023-04-26T13:32:58;93705.00;;;17.23;35.21